Time;durP1;ratioP1;P1;durP2;ratioP2;P2;SDS_P1;SDS_P2;PMS_P1;PMS_P2;Temp;Humidity;BMP_temperature;BMP_pressure;BME280_temperature;BME280_humidity;BME280_pressure;Samples;Min_cycle;Max_cycle;Signal;HPM_P1;HPM_P2
2020/12/01 00:00:29;;;;;;;30.65;4.50;;;;;;;6.96;98.21;101297.03;5061296;28;20075;-68
2020/12/01 00:02:55;;;;;;;24.13;3.95;;;;;;;6.97;97.61;101306.69;5073959;28;20115;-68
2020/12/01 00:05:21;;;;;;;32.05;5.25;;;;;;;7.05;97.23;101319.38;5058328;28;20124;-68
2020/12/01 00:07:47;;;;;;;34.08;4.10;;;;;;;7.00;97.35;101313.56;5048593;28;20081;-68
2020/12/01 00:10:13;;;;;;;26.02;4.60;;;;;;;6.98;97.93;101313.69;5064847;28;20119;-68
2020/12/01 00:12:40;;;;;;;38.60;5.25;;;;;;;7.01;97.44;101312.59;5061368;28;20032;-69
2020/12/01 00:15:07;;;;;;;45.20;4.93;;;;;;;7.04;97.68;101315.84;5065609;28;20048;-69
2020/12/01 00:17:32;;;;;;;35.15;5.28;;;;;;;7.04;97.20;101317.66;5065795;28;20118;-69
2020/12/01 00:19:58;;;;;;;41.30;4.97;;;;;;;7.04;97.04;101322.97;5049591;28;20135;-69
2020/12/01 00:22:23;;;;;;;39.00;5.30;;;;;;;7.02;97.25;101316.94;5063783;28;20112;-69
2020/12/01 00:24:49;;;;;;;33.30;4.93;;;;;;;6.98;96.97;101318.13;5064676;28;20136;-68
2020/12/01 00:27:14;;;;;;;42.28;5.85;;;;;;;6.90;96.73;101316.06;5064310;28;20115;-69
2020/12/01 00:29:40;;;;;;;43.05;5.40;;;;;;;6.88;96.93;101315.31;5065491;28;20559;-70
2020/12/01 00:32:05;;;;;;;41.13;4.97;;;;;;;6.84;96.23;101317.38;5063582;28;20127;-69
2020/12/01 00:34:31;;;;;;;40.00;4.93;;;;;;;6.85;96.02;101326.19;5033612;28;20183;-69
2020/12/01 00:36:57;;;;;;;35.72;5.18;;;;;;;6.77;96.38;101318.81;5065892;28;20116;-70
2020/12/01 00:39:22;;;;;;;40.22;5.53;;;;;;;6.70;96.33;101322.88;5064427;28;20040;-70
2020/12/01 00:41:51;;;;;;;45.38;6.30;;;;;;;6.71;96.79;101321.91;5062311;28;20131;-70
2020/12/01 00:44:17;;;;;;;32.25;5.38;;;;;;;6.74;96.01;101332.31;5060471;28;20036;-70
2020/12/01 00:46:43;;;;;;;32.13;5.10;;;;;;;6.58;95.71;101300.81;5060147;28;20563;-70
2020/12/01 00:49:09;;;;;;;35.47;4.60;;;;;;;6.70;95.46;101325.53;5063037;28;20180;-69
2020/12/01 00:51:34;;;;;;;31.67;4.20;;;;;;;6.68;94.99;101328.31;5065386;28;20119;-69
2020/12/01 00:54:00;;;;;;;30.35;3.85;;;;;;;6.68;94.95;101333.63;5080497;28;20141;-69
2020/12/01 00:56:25;;;;;;;27.35;4.93;;;;;;;6.63;95.18;101326.97;5065506;28;20107;-69
2020/12/01 00:58:51;;;;;;;28.02;4.43;;;;;;;6.41;94.96;101287.00;5065017;28;20139;-69
2020/12/01 01:01:20;;;;;;;38.10;4.65;;;;;;;6.48;95.03;101305.94;5047333;28;20064;-69
2020/12/01 01:03:47;;;;;;;29.15;4.45;;;;;;;6.61;95.38;101319.13;5065087;28;20031;-69
2020/12/01 01:06:13;;;;;;;30.48;4.93;;;;;;;6.69;95.29;101321.19;5065366;28;20051;-69
2020/12/01 01:08:39;;;;;;;29.33;3.88;;;;;;;6.69;94.84;101318.53;5061402;28;20056;-69
2020/12/01 01:11:05;;;;;;;28.02;4.03;;;;;;;6.69;94.99;101314.09;5063689;28;20068;-69
2020/12/01 01:13:30;;;;;;;25.33;3.72;;;;;;;6.72;94.15;101313.84;5064277;28;20032;-70
2020/12/01 01:15:56;;;;;;;30.85;4.43;;;;;;;6.69;94.12;101318.53;5062404;28;20071;-69
2020/12/01 01:18:21;;;;;;;30.77;4.38;;;;;;;6.66;94.21;101319.63;5066012;28;20120;-70
2020/12/01 01:20:47;;;;;;;28.08;3.67;;;;;;;6.67;94.11;101323.09;5065010;28;20945;-69
2020/12/01 01:23:12;;;;;;;26.55;3.75;;;;;;;6.56;94.36;101308.03;5063653;28;20119;-69
2020/12/01 01:25:38;;;;;;;27.83;4.18;;;;;;;5.68;94.21;101180.19;5071918;28;20123;-69
2020/12/01 01:28:04;;;;;;;27.77;3.95;;;;;;;6.59;94.39;101319.25;5064541;28;20056;-69
2020/12/01 01:30:30;;;;;;;25.88;4.05;;;;;;;6.54;94.59;101317.91;5075964;28;20132;-69
2020/12/01 01:32:55;;;;;;;25.65;3.20;;;;;;;6.53;94.98;101324.16;5064649;28;20124;-69
2020/12/01 01:35:21;;;;;;;24.77;3.78;;;;;;;6.52;94.54;101322.47;5062930;28;20139;-67
2020/12/01 01:37:46;;;;;;;21.58;4.22;;;;;;;6.49;94.23;101322.69;5064492;28;20112;-68
2020/12/01 01:40:30;;;;;;;23.10;3.25;;;;;;;6.48;94.54;101321.84;5068331;28;20597;-68
2020/12/01 01:42:56;;;;;;;21.08;3.53;;;;;;;6.37;95.19;101324.47;5078664;28;20036;-67
2020/12/01 01:45:42;;;;;;;17.10;3.25;;;;;;;6.46;95.00;101336.16;5066576;28;20068;-69
2020/12/01 01:48:31;;;;;;;17.33;3.17;;;;;;;6.48;95.38;101340.41;5061894;28;20075;-69
2020/12/01 01:51:04;;;;;;;30.10;3.25;;;;;;;6.49;95.73;101333.28;5058246;28;20044;-69
2020/12/01 01:53:30;;;;;;;21.63;3.13;;;;;;;6.51;95.62;101345.50;5064866;28;20044;-69
2020/12/01 01:55:57;;;;;;;22.13;2.92;;;;;;;6.55;95.72;101338.97;5044220;28;20115;-69
2020/12/01 01:58:25;;;;;;;23.25;4.10;;;;;;;6.57;95.66;101339.72;5046521;28;20028;-69
2020/12/01 02:01:11;;;;;;;23.40;3.70;;;;;;;6.66;95.59;101342.63;5062177;28;20040;-68
2020/12/01 02:03:45;;;;;;;21.95;2.67;;;;;;;6.73;95.91;101335.91;5063718;28;20445;-68
2020/12/01 02:06:23;;;;;;;24.95;3.22;;;;;;;6.74;95.98;101341.09;5078699;28;20036;-68
2020/12/01 02:08:56;;;;;;;21.83;2.80;;;;;;;6.73;96.07;101339.41;5057862;28;20032;-69
2020/12/01 02:11:21;;;;;;;18.20;3.58;;;;;;;6.53;95.34;101314.38;5064074;28;20042;-69
2020/12/01 02:14:04;;;;;;;19.85;2.22;;;;;;;6.67;96.20;101336.38;5047218;28;20032;-68
2020/12/01 02:16:32;;;;;;;22.80;3.45;;;;;;;6.35;96.28;101287.44;5062676;28;20071;-69
2020/12/01 02:18:58;;;;;;;20.35;2.65;;;;;;;6.66;96.34;101334.69;5066228;28;20056;-68
2020/12/01 02:21:32;;;;;;;20.13;3.05;;;;;;;6.55;96.64;101312.47;5064504;28;20119;-69
2020/12/01 02:23:58;;;;;;;20.48;2.83;;;;;;;6.69;97.04;101330.00;5048574;28;20077;-69
2020/12/01 02:26:24;;;;;;;18.60;3.17;;;;;;;6.69;97.45;101319.41;5078596;28;20482;-68
2020/12/01 02:28:50;;;;;;;23.40;3.17;;;;;;;6.68;97.88;101314.19;5064171;28;20047;-68
2020/12/01 02:31:15;;;;;;;27.30;3.28;;;;;;;6.77;97.67;101316.16;5062180;28;20120;-68
2020/12/01 02:33:41;;;;;;;16.15;2.63;;;;;;;6.71;97.44;101306.88;5064622;28;20194;-69
2020/12/01 02:36:06;;;;;;;24.85;3.05;;;;;;;6.85;97.33;101319.06;5065233;28;20186;-68
2020/12/01 02:38:32;;;;;;;23.15;2.78;;;;;;;6.90;97.28;101318.72;5062155;28;20309;-68
2020/12/01 02:40:57;;;;;;;23.45;3.40;;;;;;;6.94;97.23;101324.63;5074180;28;20136;-68
2020/12/01 02:43:23;;;;;;;26.38;3.17;;;;;;;6.94;97.17;101322.84;5079201;28;20139;-68
2020/12/01 02:45:48;;;;;;;22.88;3.15;;;;;;;6.92;97.27;101314.13;5049446;28;20124;-68
2020/12/01 02:48:14;;;;;;;18.55;2.58;;;;;;;6.97;96.85;101321.75;5062789;28;20127;-68
2020/12/01 02:50:39;;;;;;;16.40;2.30;;;;;;;6.98;97.72;101328.75;5062285;28;20119;-68
2020/12/01 02:53:05;;;;;;;18.50;2.42;;;;;;;7.00;97.38;101318.84;5063400;28;20162;-68
2020/12/01 02:55:30;;;;;;;15.27;2.33;;;;;;;7.00;97.22;101317.03;5064355;28;20064;-69
2020/12/01 02:57:56;;;;;;;12.77;2.00;;;;;;;7.06;97.09;101321.03;5045736;28;20053;-68
2020/12/01 03:00:21;;;;;;;14.75;2.45;;;;;;;7.03;96.62;101314.16;5068473;28;20131;-69
2020/12/01 03:02:47;;;;;;;13.63;1.90;;;;;;;6.98;96.18;101312.81;5064625;28;20128;-69
2020/12/01 03:05:13;;;;;;;16.17;2.40;;;;;;;6.93;96.59;101310.53;5066145;28;20656;-69
2020/12/01 03:07:38;;;;;;;16.45;2.58;;;;;;;6.88;96.76;101316.19;5059134;28;20506;-69
2020/12/01 03:10:07;;;;;;;11.57;1.70;;;;;;;6.91;96.73;101312.44;5050018;28;20546;-69
2020/12/01 03:12:32;;;;;;;;;;;;;;;6.87;96.69;101313.63;5066247;28;20521;-69
2020/12/01 03:14:59;;;;;;;13.02;1.92;;;;;;;6.77;96.75;101300.25;5064656;28;19959;-69
2020/12/01 03:17:24;;;;;;;15.73;1.88;;;;;;;6.85;97.06;101307.63;5042894;28;20114;-68
2020/12/01 03:19:50;;;;;;;18.02;2.20;;;;;;;6.85;97.28;101302.31;5067864;28;20491;-68
2020/12/01 03:22:15;;;;;;;22.25;2.33;;;;;;;6.88;97.59;101307.38;5064616;28;20558;-69
2020/12/01 03:24:41;;;;;;;19.17;2.90;;;;;;;6.91;97.60;101303.66;5066928;28;20108;-68
2020/12/01 03:27:06;;;;;;;19.20;2.22;;;;;;;6.95;98.00;101297.13;5066306;28;20136;-68
2020/12/01 03:29:32;;;;;;;16.52;2.85;;;;;;;7.01;98.03;101296.66;5065978;28;20522;-68
2020/12/01 03:31:57;;;;;;;15.07;2.15;;;;;;;7.04;97.64;101291.97;5079798;28;20154;-68
2020/12/01 03:34:23;;;;;;;18.70;2.30;;;;;;;7.03;97.88;101279.66;5060414;28;20129;-68
2020/12/01 03:36:48;;;;;;;15.00;2.45;;;;;;;7.07;98.52;101290.88;5067189;28;20128;-68
2020/12/01 03:39:14;;;;;;;16.77;2.47;;;;;;;7.07;98.50;101279.41;5065597;28;21493;-68
2020/12/01 03:41:39;;;;;;;15.75;2.55;;;;;;;7.10;98.66;101274.72;5066314;28;20521;-68
2020/12/01 03:44:05;;;;;;;18.65;2.28;;;;;;;7.12;98.67;101271.97;5065838;28;20115;-69
2020/12/01 03:46:30;;;;;;;19.10;2.10;;;;;;;7.14;99.10;101270.00;5066971;28;20056;-68
2020/12/01 03:48:58;;;;;;;17.30;2.60;;;;;;;7.17;99.47;101270.63;5061051;28;20115;-68
2020/12/01 03:51:25;;;;;;;22.65;3.20;;;;;;;7.19;99.95;101266.03;5066951;28;20406;-69
2020/12/01 03:53:51;;;;;;;18.48;2.60;;;;;;;7.27;99.65;101262.75;5065937;28;20032;-68
2020/12/01 03:56:18;;;;;;;19.30;2.78;;;;;;;7.27;99.65;101267.25;5063713;28;20033;-70
2020/12/01 03:58:43;;;;;;;20.95;2.72;;;;;;;7.39;99.80;101268.09;5046435;28;20663;-69
2020/12/01 04:01:09;;;;;;;15.85;3.17;;;;;;;7.43;99.65;101270.38;5071183;28;20328;-69
2020/12/01 04:03:34;;;;;;;13.82;2.53;;;;;;;7.48;99.75;101273.50;5064513;28;20119;-69
2020/12/01 04:06:00;;;;;;;17.23;3.00;;;;;;;7.42;99.72;101251.91;5055666;28;20044;-68
2020/12/01 04:08:25;;;;;;;16.95;2.85;;;;;;;7.54;99.99;101274.81;5064478;28;20038;-69
2020/12/01 04:10:51;;;;;;;16.63;2.80;;;;;;;7.61;99.42;101272.50;5063416;28;20123;-68
2020/12/01 04:13:17;;;;;;;17.80;3.20;;;;;;;7.64;99.12;101285.56;5064562;28;20155;-68
2020/12/01 04:15:42;;;;;;;21.77;3.42;;;;;;;7.57;99.52;101258.63;5065794;28;20194;-69
2020/12/01 04:18:08;;;;;;;21.50;3.40;;;;;;;7.72;99.31;101285.78;5046385;28;20111;-68
2020/12/01 04:20:33;;;;;;;30.15;4.20;;;;;;;7.76;99.44;101278.41;5062915;28;20155;-69
2020/12/01 04:22:59;;;;;;;31.33;4.68;;;;;;;7.77;99.46;101272.13;5063327;28;20160;-68
2020/12/01 04:25:25;;;;;;;28.98;5.40;;;;;;;7.84;98.91;101280.44;5058815;28;20345;-68
2020/12/01 04:27:51;;;;;;;32.00;3.80;;;;;;;7.81;99.27;101287.69;5041265;28;20025;-68
2020/12/01 04:30:17;;;;;;;29.25;4.72;;;;;;;7.84;99.33;101283.94;5064260;28;20543;-68
2020/12/01 04:32:42;;;;;;;31.60;4.40;;;;;;;7.89;99.06;101286.22;5041632;28;20068;-68
2020/12/01 04:35:08;;;;;;;31.50;4.90;;;;;;;7.88;98.09;101289.84;5062789;28;20137;-68
2020/12/01 04:37:33;;;;;;;44.25;5.20;;;;;;;7.81;98.17;101274.41;5064354;28;20191;-69
2020/12/01 04:39:59;;;;;;;38.75;5.60;;;;;;;7.94;98.13;101290.19;5058909;28;20099;-69
2020/12/01 04:42:24;;;;;;;44.10;5.93;;;;;;;7.94;97.74;101300.81;5059858;28;20616;-69
2020/12/01 04:45:08;;;;;;;39.22;5.65;;;;;;;7.92;97.88;101304.59;5045742;28;20617;-69
2020/12/01 04:48:11;;;;;;;35.75;4.95;;;;;;;7.95;97.81;101313.13;5059315;28;20040;-69
2020/12/01 04:50:43;;;;;;;26.73;4.65;;;;;;;7.94;97.87;101308.78;4984850;28;20077;-69
2020/12/01 04:53:33;;;;;;;28.13;4.88;;;;;;;7.97;98.05;101313.03;5036312;28;20110;-69
2020/12/01 04:56:17;;;;;;;26.92;4.90;;;;;;;7.96;97.47;101321.97;5062350;28;20028;-69
2020/12/01 04:58:52;;;;;;;39.13;5.30;;;;;;;7.99;97.69;101312.91;5060655;28;20067;-70
2020/12/01 05:01:23;;;;;;;30.27;4.93;;;;;;;7.93;97.64;101314.25;5061676;28;20304;-69
2020/12/01 05:03:55;;;;;;;33.00;5.25;;;;;;;7.84;98.04;101297.22;5065069;28;20075;-68
2020/12/01 05:09:22;;;;;;;39.58;5.13;;;;;;;7.87;98.06;101315.59;5060619;28;20020;-68
2020/12/01 05:11:58;;;;;;;20.23;3.63;;;;;;;7.85;98.25;101308.72;5059734;28;20059;-68
2020/12/01 05:15:02;;;;;;;29.25;4.70;;;;;;;7.95;98.25;101338.88;5066721;28;20033;-70
2020/12/01 05:17:51;;;;;;;27.08;4.00;;;;;;;7.97;97.82;101342.28;5010939;28;20432;-68
2020/12/01 05:20:16;;;;;;;30.65;4.28;;;;;;;7.91;98.35;101335.63;5063828;28;20502;-68
2020/12/01 05:22:47;;;;;;;33.53;5.03;;;;;;;7.94;97.64;101338.03;5060205;28;20119;-68
2020/12/01 05:25:18;;;;;;;29.65;3.80;;;;;;;7.69;97.99;101307.28;5062494;28;20037;-69
2020/12/01 05:27:43;;;;;;;31.48;4.47;;;;;;;7.94;97.85;101355.81;5060950;28;20041;-68
2020/12/01 05:30:22;;;;;;;28.67;4.45;;;;;;;7.99;97.64;101364.25;5076640;28;20131;-68
2020/12/01 05:32:59;;;;;;;30.10;4.63;;;;;;;8.04;97.46;101369.19;5059322;28;20119;-69
2020/12/01 05:35:32;;;;;;;26.23;4.18;;;;;;;8.00;97.17;101362.44;5062683;28;20080;-69
2020/12/01 05:38:18;;;;;;;23.63;3.88;;;;;;;8.08;97.42;101370.63;5045635;28;20275;-69
2020/12/01 05:40:59;;;;;;;26.13;3.92;;;;;;;8.01;97.52;101393.34;5062262;28;20435;-69
2020/12/01 05:43:30;;;;;;;20.08;3.03;;;;;;;7.58;97.04;101316.09;5061998;28;20111;-68
2020/12/01 05:46:25;;;;;;;20.90;3.05;;;;;;;7.50;97.76;101316.72;5064469;28;20107;-69
2020/12/01 05:49:29;;;;;;;24.13;3.05;;;;;;;8.01;97.86;101401.34;5047470;28;20037;-69
2020/12/01 05:52:10;;;;;;;26.17;3.72;;;;;;;7.99;97.50;101405.91;4971379;28;20046;-69
2020/12/01 05:54:40;;;;;;;20.00;2.92;;;;;;;7.97;97.74;101406.88;5037404;28;20135;-69
2020/12/01 05:57:16;;;;;;;19.00;3.17;;;;;;;7.93;98.08;101412.56;5060979;28;20610;-69
2020/12/01 05:59:54;;;;;;;19.40;3.90;;;;;;;7.90;98.07;101408.34;5060814;28;20494;-69
2020/12/01 06:02:24;;;;;;;17.02;3.10;;;;;;;7.84;98.32;101408.81;5059912;28;20024;-70
2020/12/01 06:04:50;;;;;;;23.95;3.88;;;;;;;7.95;97.67;101421.28;5043894;28;20119;-69
2020/12/01 06:07:16;;;;;;;23.38;4.55;;;;;;;7.96;97.40;101421.13;5026151;28;20597;-69
2020/12/01 06:10:36;;;;;;;21.17;3.85;;;;;;;7.93;97.91;101423.22;5046356;28;20033;-68
2020/12/01 06:13:12;;;;;;;25.05;4.68;;;;;;;7.90;97.69;101431.41;5035816;28;20053;-68
2020/12/01 06:15:41;;;;;;;22.75;4.13;;;;;;;7.71;97.77;101403.66;5058818;28;20032;-69
2020/12/01 06:18:25;;;;;;;27.27;4.32;;;;;;;7.83;98.23;101431.06;5040739;28;20082;-69
2020/12/01 06:20:55;;;;;;;36.60;4.88;;;;;;;7.34;97.90;101356.06;5036195;28;20099;-69
2020/12/01 06:23:42;;;;;;;38.28;5.20;;;;;;;7.85;97.96;101442.41;5056971;28;20131;-69
2020/12/01 06:26:45;;;;;;;37.47;6.28;;;;;;;7.90;97.52;101450.00;5059325;28;20044;-69
2020/12/01 06:29:15;;;;;;;44.25;5.90;;;;;;;7.86;97.09;101453.91;5076375;28;20043;-69
2020/12/01 06:32:18;;;;;;;37.97;5.40;;;;;;;7.84;97.41;101454.00;5058824;28;20036;-74
2020/12/01 06:34:48;;;;;;;44.05;5.68;;;;;;;7.86;97.17;101467.19;5082167;28;20044;-74
2020/12/01 06:37:32;;;;;;;44.38;6.30;;;;;;;7.81;97.25;101465.72;5043335;28;20048;-75
2020/12/01 06:40:00;;;;;;;44.63;7.32;;;;;;;7.81;96.91;101472.84;5065914;28;20478;-68
2020/12/01 06:42:26;;;;;;;;;;;;;;;7.83;96.43;101478.88;5065062;28;20632;-68
2020/12/01 06:44:58;;;;;;;39.42;5.40;;;;;;;7.82;95.84;101483.38;5072514;28;20294;-68
2020/12/01 06:47:25;;;;;;;39.78;6.05;;;;;;;7.83;96.13;101484.19;5065341;28;20397;-69
2020/12/01 06:49:53;;;;;;;39.13;6.07;;;;;;;7.78;95.60;101494.34;5064484;28;20034;-69
2020/12/01 06:52:19;;;;;;;32.55;5.65;;;;;;;7.79;96.19;101502.19;5058800;28;20108;-75
2020/12/01 06:54:49;;;;;;;37.88;5.65;;;;;;;7.81;95.89;101502.06;5065965;28;20131;-69
2020/12/01 06:57:29;;;;;;;45.53;6.05;;;;;;;7.81;95.97;101512.69;5064589;28;20123;-68
2020/12/01 06:59:55;;;;;;;29.77;5.70;;;;;;;7.83;95.14;101513.44;5062644;28;20044;-69
2020/12/01 07:02:20;;;;;;;33.97;4.95;;;;;;;7.82;95.20;101525.88;5064181;28;20171;-69
2020/12/01 07:04:46;;;;;;;34.10;4.72;;;;;;;7.79;95.60;101512.00;5043297;28;20059;-69
2020/12/01 07:07:28;;;;;;;31.30;5.05;;;;;;;7.77;95.41;101535.16;5062856;28;20120;-69
2020/12/01 07:09:54;;;;;;;27.45;4.70;;;;;;;7.78;95.33;101536.88;5061362;28;20052;-75
2020/12/01 07:12:32;;;;;;;21.67;3.72;;;;;;;7.66;95.03;101514.72;5063956;28;20520;-69
2020/12/01 07:15:06;;;;;;;30.85;4.15;;;;;;;7.75;94.42;101542.41;5025608;28;20035;-69
2020/12/01 07:17:55;;;;;;;28.40;4.05;;;;;;;7.75;94.05;101559.19;5064469;28;20091;-70
2020/12/01 07:20:36;;;;;;;26.40;4.25;;;;;;;7.72;94.22;101559.44;5056963;28;20048;-68
2020/12/01 07:23:45;;;;;;;32.45;5.03;;;;;;;7.74;94.46;101570.78;5060997;28;20126;-69
2020/12/01 07:26:16;;;;;;;27.77;4.35;;;;;;;7.73;94.82;101568.25;5048827;28;20107;-69
2020/12/01 07:28:48;;;;;;;24.00;4.07;;;;;;;7.68;94.67;101570.38;5063126;28;20032;-69
2020/12/01 07:31:31;;;;;;;33.35;4.85;;;;;;;7.63;95.42;101574.25;5067902;28;20036;-69
2020/12/01 07:34:03;;;;;;;33.88;4.40;;;;;;;7.61;95.42;101578.84;5048137;28;20518;-69
2020/12/01 07:36:28;;;;;;;27.77;4.60;;;;;;;7.60;95.75;101582.47;5071510;28;20108;-69
2020/12/01 07:39:14;;;;;;;24.90;5.10;;;;;;;7.65;95.56;101587.41;5062046;28;20454;-70
2020/12/01 07:41:50;;;;;;;27.08;4.00;;;;;;;7.45;95.90;101565.88;5060586;28;20439;-70
2020/12/01 07:44:18;;;;;;;34.35;5.13;;;;;;;7.43;95.52;101564.28;5062066;28;20419;-70
2020/12/01 07:49:12;;;;;;;32.78;4.93;;;;;;;7.60;96.08;101597.56;5058242;28;20593;-70
2020/12/01 07:51:38;;;;;;;38.38;5.55;;;;;;;7.56;96.43;101596.91;5054190;28;20047;-70
2020/12/01 07:54:04;;;;;;;36.17;5.68;;;;;;;7.31;96.32;101564.25;5005821;28;20489;-70
2020/12/01 07:56:30;;;;;;;36.95;5.45;;;;;;;7.43;96.22;101578.41;5057803;28;20296;-70
2020/12/01 07:59:04;;;;;;;42.13;6.15;;;;;;;7.64;96.50;101612.28;5037824;28;20029;-70
2020/12/01 08:01:30;;;;;;;37.35;6.15;;;;;;;7.70;96.71;101626.91;5059053;28;20093;-70
2020/12/01 08:04:06;;;;;;;33.00;5.85;;;;;;;7.71;95.99;101629.47;5039126;28;20112;-69
2020/12/01 08:06:31;;;;;;;44.00;7.00;;;;;;;7.66;95.98;101634.28;5049778;28;20101;-69
2020/12/01 08:08:57;;;;;;;33.80;5.55;;;;;;;7.68;95.88;101642.13;5017345;28;20032;-69
2020/12/01 08:11:23;;;;;;;38.50;6.22;;;;;;;7.42;95.94;101597.09;5057788;28;20703;-75
2020/12/01 08:13:53;;;;;;;41.40;6.68;;;;;;;7.68;96.11;101640.34;5060645;28;20075;-77
2020/12/01 08:16:21;;;;;;;34.70;5.47;;;;;;;7.70;96.21;101641.06;5052764;28;20506;-75
2020/12/01 08:18:46;;;;;;;36.60;6.38;;;;;;;7.70;96.04;101642.84;5058975;28;20044;-75
2020/12/01 08:21:14;;;;;;;41.45;6.90;;;;;;;7.73;96.18;101646.16;5049782;28;20033;-75
2020/12/01 08:23:39;;;;;;;45.47;5.88;;;;;;;7.68;96.00;101634.16;5065355;28;20356;-69
2020/12/01 08:26:18;;;;;;;41.55;6.22;;;;;;;7.78;95.31;101651.13;5064851;28;20131;-69
2020/12/01 08:28:46;;;;;;;36.15;5.95;;;;;;;7.74;94.99;101654.97;5052935;28;20032;-69
2020/12/01 08:31:15;;;;;;;;;;;;;;;7.73;94.20;101656.78;5042955;28;20127;-69
2020/12/01 08:33:50;;;;;;;;;;;;;;;7.75;94.24;101656.66;5064740;28;19922;-69
2020/12/01 08:36:35;;;;;;;28.48;5.70;;;;;;;7.81;93.50;101658.84;5061503;28;19934;-69
2020/12/01 08:39:28;;;;;;;37.60;4.95;;;;;;;7.85;92.27;101664.78;5063823;28;20113;-70
2020/12/01 08:42:14;;;;;;;33.35;5.10;;;;;;;7.89;92.07;101672.41;5054008;28;20059;-70
2020/12/01 08:44:52;;;;;;;31.73;5.07;;;;;;;7.93;91.57;101673.91;5063496;28;20433;-70
2020/12/01 08:47:21;;;;;;;34.17;6.50;;;;;;;7.87;91.54;101663.72;5059554;28;20689;-69
2020/12/01 08:49:48;;;;;;;26.50;4.00;;;;;;;7.99;91.18;101677.03;5054521;28;20043;-69
2020/12/01 08:52:34;;;;;;;37.85;5.30;;;;;;;7.88;90.24;101656.56;5078323;28;20031;-69
2020/12/01 08:55:26;;;;;;;32.67;4.40;;;;;;;8.04;89.23;101686.34;5062361;28;20025;-69
2020/12/01 08:57:58;;;;;;;28.02;4.47;;;;;;;7.91;89.55;101667.84;5055618;28;20107;-69
2020/12/01 09:00:24;;;;;;;31.60;4.68;;;;;;;7.94;90.00;101680.88;5042789;28;20425;-69
2020/12/01 09:02:51;;;;;;;29.38;4.30;;;;;;;8.07;88.81;101690.63;5039879;28;20445;-70
2020/12/01 09:05:32;;;;;;;25.08;5.07;;;;;;;7.81;88.64;101659.72;5059038;28;20066;-69
2020/12/01 09:08:30;;;;;;;30.35;4.57;;;;;;;8.13;89.41;101706.09;5058800;28;20110;-69
2020/12/01 09:21:52;;;;;;;27.00;3.80;;;;;;;8.41;86.57;101706.63;5053713;28;20247;-69
2020/12/01 09:24:26;;;;;;;25.65;4.45;;;;;;;8.36;86.31;101716.78;5054123;28;20036;-71
2020/12/01 09:27:18;;;;;;;27.38;5.78;;;;;;;8.38;86.71;101725.50;5040547;28;20032;-70
2020/12/01 09:29:50;;;;;;;28.48;4.75;;;;;;;8.37;86.03;101722.00;5054401;28;20407;-73
2020/12/01 09:32:21;;;;;;;18.30;4.22;;;;;;;8.45;85.63;101725.88;5059860;28;20051;-69
2020/12/01 09:34:47;;;;;;;24.73;3.97;;;;;;;8.52;84.89;101738.63;5062501;28;21977;-69
2020/12/01 09:37:12;;;;;;;24.40;4.90;;;;;;;8.60;84.12;101729.22;5061988;28;20754;-71
2020/12/01 09:39:38;;;;;;;26.63;4.55;;;;;;;8.60;82.95;101735.38;5061570;28;20069;-70
2020/12/01 09:42:11;;;;;;;27.60;5.30;;;;;;;8.60;82.48;101743.34;5063108;28;20115;-69
2020/12/01 09:47:12;;;;;;;31.02;4.85;;;;;;;8.71;82.75;101758.50;5060545;28;20469;-69
2020/12/01 09:49:38;;;;;;;32.60;4.57;;;;;;;8.92;82.84;101757.78;5060169;28;20090;-70
2020/12/01 09:52:12;;;;;;;25.25;4.63;;;;;;;8.98;82.13;101757.31;5060308;28;20152;-69
2020/12/01 09:54:50;;;;;;;27.92;5.95;;;;;;;8.99;79.78;101751.84;5068809;28;20045;-69
2020/12/01 09:57:38;;;;;;;26.30;4.53;;;;;;;9.00;79.92;101766.03;5040188;28;20036;-69
2020/12/01 10:07:12;;;;;;;25.20;4.30;;;;;;;8.92;78.99;101777.28;5067240;28;20037;-70
2020/12/01 10:08:37;;;;;;;29.10;4.55;;;;;;;8.98;78.28;101767.97;5056664;28;20806;-69
2020/12/01 10:19:32;;;;;;;30.50;5.18;;;;;;;8.96;79.37;101769.88;5063502;28;20603;-69
2020/12/01 10:34:50;;;;;;;20.52;4.10;;;;;;;9.17;77.34;101762.88;5062678;28;20044;-69
2020/12/01 10:37:16;;;;;;;27.88;4.95;;;;;;;9.28;76.86;101799.31;5063803;28;20123;-69
2020/12/01 10:39:41;;;;;;;27.63;5.07;;;;;;;9.25;77.35;101783.56;5060841;28;20127;-69
2020/12/01 10:42:08;;;;;;;22.35;4.50;;;;;;;9.28;77.19;101794.00;5059588;28;20115;-69
2020/12/01 10:44:41;;;;;;;26.35;4.97;;;;;;;9.24;76.83;101783.69;5065865;28;20036;-69
2020/12/01 10:47:07;;;;;;;26.63;4.78;;;;;;;9.26;76.95;101798.59;5065051;28;20123;-69
2020/12/01 10:49:33;;;;;;;28.30;4.25;;;;;;;9.28;78.10;101796.66;5066771;28;20117;-69
2020/12/01 10:51:58;;;;;;;26.73;4.40;;;;;;;9.32;77.48;101799.91;5063966;28;20123;-69
2020/12/01 10:54:24;;;;;;;27.00;5.05;;;;;;;9.35;76.59;101799.69;5066868;28;20123;-69
2020/12/01 10:56:50;;;;;;;21.80;5.00;;;;;;;9.35;77.68;101799.69;5041507;28;20467;-68
2020/12/01 10:59:16;;;;;;;25.90;4.43;;;;;;;9.32;76.93;101794.59;5061461;28;20048;-68
2020/12/01 11:01:41;;;;;;;31.15;5.70;;;;;;;9.32;77.01;101791.91;5062421;28;20040;-69
2020/12/01 11:04:07;;;;;;;31.33;5.47;;;;;;;9.32;77.77;101792.78;5063784;28;20112;-68
2020/12/01 11:06:32;;;;;;;27.33;5.13;;;;;;;9.09;77.44;101761.81;5063422;28;20090;-68
2020/12/01 11:08:58;;;;;;;30.35;5.30;;;;;;;9.26;77.15;101790.59;5062482;28;20132;-68
2020/12/01 11:11:24;;;;;;;24.67;5.30;;;;;;;9.19;77.55;101795.56;5061326;28;20135;-68
2020/12/01 11:13:49;;;;;;;26.95;4.88;;;;;;;9.10;77.24;101790.97;5064725;28;20143;-68
2020/12/01 11:16:15;;;;;;;27.48;5.18;;;;;;;9.10;76.88;101798.09;5063985;28;20123;-68
2020/12/01 11:18:41;;;;;;;29.95;4.88;;;;;;;9.03;77.13;101795.06;5059511;28;20131;-68
2020/12/01 11:21:06;;;;;;;23.02;3.90;;;;;;;9.05;77.97;101803.78;5043814;28;20029;-68
2020/12/01 11:23:32;;;;;;;27.75;4.13;;;;;;;9.14;77.02;101800.41;5067964;28;20156;-69
2020/12/01 11:25:57;;;;;;;31.00;4.63;;;;;;;9.09;77.33;101791.94;5058217;28;20462;-69
2020/12/01 11:28:23;;;;;;;29.45;5.00;;;;;;;9.18;77.24;101807.19;5062100;28;20064;-68
2020/12/01 11:30:48;;;;;;;25.73;4.72;;;;;;;9.13;77.33;101809.38;5063360;28;20131;-68
2020/12/01 11:33:14;;;;;;;36.65;5.28;;;;;;;9.10;78.55;101814.06;5055575;28;20040;-68
2020/12/01 11:35:39;;;;;;;24.75;4.72;;;;;;;9.15;77.77;101810.09;5055466;28;20051;-68
2020/12/01 11:38:05;;;;;;;26.10;5.30;;;;;;;9.27;78.67;101810.09;5057882;28;20066;-69
2020/12/01 11:40:30;;;;;;;30.25;4.93;;;;;;;9.44;77.24;101819.41;5058206;28;20049;-68
2020/12/01 11:42:56;;;;;;;32.13;4.50;;;;;;;9.58;76.46;101820.97;5047478;28;20051;-68
2020/12/01 11:45:21;;;;;;;32.90;5.65;;;;;;;9.58;76.44;101810.31;5064927;28;20123;-68
2020/12/01 11:47:47;;;;;;;24.92;5.13;;;;;;;9.68;75.23;101829.09;5067158;28;20042;-69
2020/12/01 11:50:12;;;;;;;25.73;4.10;;;;;;;9.69;73.84;101823.66;5067283;28;20562;-69
2020/12/01 11:52:38;;;;;;;27.13;5.15;;;;;;;9.69;73.30;101833.44;5080108;28;20056;-69
2020/12/01 11:55:05;;;;;;;28.08;4.40;;;;;;;9.67;73.63;101828.25;5059145;28;20441;-69
2020/12/01 11:57:30;;;;;;;29.13;5.10;;;;;;;9.58;75.18;101824.50;5059845;28;20090;-69
2020/12/01 11:59:56;;;;;;;28.38;4.78;;;;;;;9.49;75.39;101826.06;5064452;28;20128;-69
2020/12/01 12:02:21;;;;;;;22.85;4.63;;;;;;;9.39;75.16;101826.91;5036738;28;20086;-69
2020/12/01 12:04:47;;;;;;;23.98;4.22;;;;;;;9.41;74.80;101828.50;5061855;28;20131;-69
2020/12/01 12:07:13;;;;;;;25.63;4.50;;;;;;;9.51;74.85;101825.94;5062249;28;20031;-69
2020/12/01 12:09:38;;;;;;;25.50;4.10;;;;;;;9.61;73.74;101816.25;5041761;28;20634;-69
2020/12/01 12:12:04;;;;;;;23.90;4.82;;;;;;;9.75;72.69;101815.13;5057836;28;20112;-69
2020/12/01 12:14:29;;;;;;;23.70;4.28;;;;;;;9.75;73.08;101823.13;5063140;28;20123;-69
2020/12/01 12:16:55;;;;;;;28.13;4.20;;;;;;;9.74;72.81;101820.59;5061866;28;20123;-69
2020/12/01 12:19:20;;;;;;;25.13;3.65;;;;;;;9.75;73.30;101827.63;5055314;28;20036;-69
2020/12/01 12:21:46;;;;;;;25.65;5.05;;;;;;;9.76;72.76;101830.16;5054559;28;20565;-68
2020/12/01 12:24:11;;;;;;;22.17;3.60;;;;;;;9.79;72.28;101821.94;5059109;28;20107;-68
2020/12/01 12:26:37;;;;;;;23.15;3.50;;;;;;;9.76;71.72;101826.66;5061309;28;20131;-69